Time;durP1;ratioP1;P1;durP2;ratioP2;P2;SDS_P1;SDS_P2;PMS_P1;PMS_P2;Temp;Humidity;BMP_temperature;BMP_pressure;BME280_temperature;BME280_humidity;BME280_pressure;Samples;Min_cycle;Max_cycle;Signal;HPM_P1;HPM_P2
2021/05/05 00:00:21;;;;;;;1.90;1.10;;;7.40;1.00;;;;;;5093775;28;20174;-68
2021/05/05 00:02:46;;;;;;;3.40;1.67;;;7.40;1.00;;;;;;5094306;28;20189;-68
2021/05/05 00:05:14;;;;;;;2.60;0.90;;;7.70;1.00;;;;;;5093654;28;20183;-68
2021/05/05 00:07:41;;;;;;;3.15;1.38;;;7.60;1.00;;;;;;5093621;28;20175;-68
2021/05/05 00:10:07;;;;;;;1.60;1.25;;;7.50;1.00;;;;;;5093735;28;20262;-68
2021/05/05 00:12:34;;;;;;;3.08;0.90;;;7.60;1.00;;;;;;5094088;28;20180;-68
2021/05/05 00:15:00;;;;;;;2.70;1.13;;;7.70;1.00;;;;;;5093980;28;20237;-68
2021/05/05 00:17:25;;;;;;;3.93;1.73;;;7.60;1.00;;;;;;5093597;28;20175;-68
2021/05/05 00:19:51;;;;;;;6.00;1.40;;;7.80;1.00;;;;;;5093376;28;20175;-68
2021/05/05 00:22:17;;;;;;;3.10;1.40;;;7.70;1.00;;;;;;5093310;28;20218;-68
2021/05/05 00:24:42;;;;;;;1.73;0.90;;;7.60;1.00;;;;;;5093491;28;20652;-68
2021/05/05 00:27:08;;;;;;;3.63;2.07;;;7.60;1.00;;;;;;5093350;28;20258;-67
2021/05/05 00:29:34;;;;;;;3.47;1.30;;;7.60;1.00;;;;;;5093212;28;20242;-67
2021/05/05 00:31:59;;;;;;;2.00;1.10;;;7.70;1.00;;;;;;5093261;28;20175;-68
2021/05/05 00:34:25;;;;;;;1.80;1.27;;;7.70;1.00;;;;;;5093117;28;20184;-68
2021/05/05 00:36:50;;;;;;;4.47;2.60;;;7.60;1.00;;;;;;5093440;28;20190;-68
2021/05/05 00:39:16;;;;;;;3.07;1.57;;;7.70;1.00;;;;;;5093472;28;20693;-67
2021/05/05 00:41:42;;;;;;;2.30;1.17;;;7.50;1.00;;;;;;5092874;28;20668;-68
2021/05/05 00:44:07;;;;;;;4.07;1.77;;;7.40;1.00;;;;;;5092829;28;20571;-68
2021/05/05 00:46:33;;;;;;;2.90;1.60;;;7.50;1.00;;;;;;5093053;28;20178;-66
2021/05/05 00:48:58;;;;;;;6.53;2.30;;;7.70;1.00;;;;;;5092915;28;20195;-68
2021/05/05 00:51:24;;;;;;;5.67;2.10;;;7.60;1.00;;;;;;5091682;28;20217;-67
2021/05/05 00:53:50;;;;;;;5.65;2.50;;;7.50;1.00;;;;;;5092761;28;20202;-68
2021/05/05 00:56:16;;;;;;;6.10;2.53;;;7.60;1.00;;;;;;5092920;28;20593;-68
2021/05/05 00:58:41;;;;;;;2.10;1.40;;;7.70;1.00;;;;;;5092932;28;20197;-68
2021/05/05 01:01:07;;;;;;;1.80;1.07;;;7.60;1.00;;;;;;5092856;28;20250;-68
2021/05/05 01:03:33;;;;;;;2.33;1.27;;;7.50;1.00;;;;;;5092681;28;20244;-68
2021/05/05 01:06:00;;;;;;;3.93;1.60;;;7.70;1.00;;;;;;5092791;28;20208;-68
2021/05/05 01:08:26;;;;;;;5.43;1.77;;;7.60;1.00;;;;;;5092670;28;20797;-68
2021/05/05 01:10:52;;;;;;;2.50;2.07;;;7.50;1.00;;;;;;5093039;28;20250;-68
2021/05/05 01:13:19;;;;;;;2.30;1.23;;;7.50;1.00;;;;;;5092937;28;20409;-68
2021/05/05 01:15:44;;;;;;;3.88;1.40;;;7.60;1.00;;;;;;5092707;28;20170;-68
2021/05/05 01:18:11;;;;;;;2.80;1.87;;;7.60;1.00;;;;;;5092742;28;20664;-68
2021/05/05 01:20:39;;;;;;;4.50;1.70;;;7.60;1.00;;;;;;5092656;28;20163;-68
2021/05/05 01:23:06;;;;;;;3.70;1.83;;;7.60;1.00;;;;;;5092558;28;20194;-67
2021/05/05 01:25:32;;;;;;;6.35;2.00;;;7.60;1.00;;;;;;5092587;28;20219;-68
2021/05/05 01:27:57;;;;;;;2.87;1.70;;;7.50;1.00;;;;;;5092913;28;20276;-68
2021/05/05 01:30:23;;;;;;;3.37;1.43;;;7.50;1.00;;;;;;5092559;28;20532;-68
2021/05/05 01:32:49;;;;;;;4.10;1.30;;;7.60;1.00;;;;;;5091297;28;20672;-68
2021/05/05 01:35:17;;;;;;;2.95;1.92;;;7.50;1.00;;;;;;5092541;28;20278;-68
2021/05/05 01:37:43;;;;;;;3.95;1.60;;;7.40;1.00;;;;;;5091551;28;20730;-68
2021/05/05 01:40:11;;;;;;;6.75;2.05;;;7.40;1.00;;;;;;5092476;28;20713;-68
2021/05/05 01:42:36;;;;;;;9.52;2.10;;;7.40;1.00;;;;;;5092426;28;20203;-68
2021/05/05 01:45:03;;;;;;;1.60;1.20;;;7.50;1.00;;;;;;5092440;28;20271;-68
2021/05/05 01:47:28;;;;;;;2.00;1.58;;;7.40;1.00;;;;;;5092477;28;20164;-68
2021/05/05 01:49:54;;;;;;;3.53;1.47;;;7.50;99.90;;;;;;5091162;28;20167;-68
2021/05/05 01:52:20;;;;;;;1.97;1.20;;;7.50;1.00;;;;;;5092923;28;20667;-68
2021/05/05 01:54:46;;;;;;;3.80;1.35;;;7.70;99.90;;;;;;5096070;28;20187;-67
2021/05/05 01:57:20;;;;;;;8.63;1.70;;;7.60;99.90;;;;;;5096057;28;20168;-68
2021/05/05 01:59:48;;;;;;;1.90;1.42;;;7.60;1.00;;;;;;5096315;28;20159;-68
2021/05/05 02:02:14;;;;;;;5.00;1.30;;;7.70;99.90;;;;;;5096154;28;20171;-68
2021/05/05 02:04:39;;;;;;;2.90;1.20;;;7.70;99.90;;;;;;5096009;28;20187;-68
2021/05/05 02:07:05;;;;;;;3.03;1.60;;;7.80;99.90;;;;;;5096625;28;20160;-68
2021/05/05 02:09:30;;;;;;;2.87;1.40;;;7.70;99.90;;;;;;5095794;28;20198;-68
2021/05/05 02:11:56;;;;;;;4.30;1.70;;;7.70;99.90;;;;;;5095905;28;20170;-68
2021/05/05 02:14:21;;;;;;;6.67;1.63;;;7.60;99.90;;;;;;5096135;28;20223;-68
2021/05/05 02:16:47;;;;;;;3.43;1.70;;;7.70;99.90;;;;;;5095782;28;20254;-67
2021/05/05 02:19:14;;;;;;;2.80;1.80;;;7.80;99.90;;;;;;5095864;28;20225;-68
2021/05/05 02:21:40;;;;;;;3.90;1.70;;;7.60;99.90;;;;;;5095937;28;20182;-68
2021/05/05 02:24:06;;;;;;;5.67;2.03;;;7.70;99.90;;;;;;5095507;28;20211;-68
2021/05/05 02:26:32;;;;;;;5.90;2.40;;;7.60;99.90;;;;;;5095557;28;20171;-68
2021/05/05 02:28:57;;;;;;;6.85;2.28;;;7.50;99.90;;;;;;5095560;28;20156;-67
2021/05/05 02:31:24;;;;;;;7.80;2.80;;;7.80;99.90;;;;;;5095719;28;20271;-68
2021/05/05 02:33:50;;;;;;;3.70;2.25;;;7.50;99.90;;;;;;5095586;28;20264;-68
2021/05/05 02:36:15;;;;;;;5.00;2.60;;;7.70;1.00;;;;;;5095937;28;20175;-68
2021/05/05 02:38:41;;;;;;;6.27;2.60;;;7.60;99.90;;;;;;5095446;28;20168;-68
2021/05/05 02:41:06;;;;;;;6.03;2.03;;;7.60;1.00;;;;;;5095308;28;20167;-68
2021/05/05 02:43:32;;;;;;;8.20;2.40;;;7.70;1.00;;;;;;5095366;28;20252;-68
2021/05/05 02:45:57;;;;;;;3.23;1.57;;;7.50;1.00;;;;;;5095298;28;20246;-68
2021/05/05 02:48:23;;;;;;;10.23;2.97;;;7.60;1.00;;;;;;5095299;28;20663;-68
2021/05/05 02:50:48;;;;;;;5.33;2.30;;;7.80;1.00;;;;;;5095348;28;20206;-68
2021/05/05 02:53:14;;;;;;;4.73;1.83;;;8.00;99.90;;;;;;5095224;28;20201;-68
2021/05/05 02:55:39;;;;;;;7.23;2.40;;;8.00;99.90;;;;;;5095338;28;20257;-68
2021/05/05 02:58:05;;;;;;;14.07;2.57;;;7.60;1.00;;;;;;5094969;28;20246;-68
2021/05/05 03:00:30;;;;;;;7.70;2.70;;;7.80;1.00;;;;;;5094978;28;20656;-68
2021/05/05 03:02:56;;;;;;;9.90;2.60;;;7.60;99.90;;;;;;5095421;28;20195;-68
2021/05/05 03:05:21;;;;;;;5.40;2.10;;;7.60;1.00;;;;;;5095258;28;20188;-67
2021/05/05 03:07:47;;;;;;;9.77;3.23;;;7.80;1.00;;;;;;5094862;28;20175;-68
2021/05/05 03:10:13;;;;;;;3.93;2.27;;;7.80;1.00;;;;;;5095030;28;20532;-66
2021/05/05 03:12:39;;;;;;;3.17;2.05;;;7.70;1.00;;;;;;5094899;28;20172;-68
2021/05/05 03:15:09;;;;;;;3.13;2.30;;;7.80;1.00;;;;;;5094596;28;20252;-68
2021/05/05 03:17:36;;;;;;;5.05;2.15;;;7.70;99.90;;;;;;5095661;28;20250;-66
2021/05/05 03:20:01;;;;;;;4.30;2.30;;;7.70;1.00;;;;;;5094530;28;20164;-66
2021/05/05 03:22:27;;;;;;;6.23;2.30;;;7.70;1.00;;;;;;5094468;28;20533;-67
2021/05/05 03:24:52;;;;;;;4.03;2.00;;;7.70;99.90;;;;;;5094390;28;20288;-67
2021/05/05 03:27:18;;;;;;;5.40;2.80;;;7.70;1.00;;;;;;5094541;28;20533;-66
2021/05/05 03:29:43;;;;;;;7.50;3.20;;;7.90;1.00;;;;;;5094449;28;20176;-67
2021/05/05 03:32:09;;;;;;;9.80;2.73;;;7.80;1.00;;;;;;5094629;28;20228;-66
2021/05/05 03:34:34;;;;;;;8.73;3.13;;;7.90;1.00;;;;;;5094191;28;20188;-66
2021/05/05 03:37:01;;;;;;;4.43;2.27;;;8.00;1.00;;;;;;5094509;28;20526;-66
2021/05/05 03:39:27;;;;;;;6.13;2.72;;;7.80;1.00;;;;;;5094198;28;20171;-66
2021/05/05 03:41:52;;;;;;;5.57;3.20;;;7.80;1.00;;;;;;5094131;28;20175;-66
2021/05/05 03:44:18;;;;;;;6.33;2.73;;;7.70;1.00;;;;;;5094010;28;20217;-67
2021/05/05 03:46:43;;;;;;;8.67;3.33;;;7.90;1.00;;;;;;5094085;28;20175;-66
2021/05/05 03:49:09;;;;;;;7.87;3.20;;;7.70;1.00;;;;;;5094289;28;20175;-67
2021/05/05 03:51:35;;;;;;;6.43;3.67;;;7.80;1.00;;;;;;5094222;28;20163;-66
2021/05/05 03:54:00;;;;;;;6.17;2.63;;;7.70;1.00;;;;;;5094110;28;20234;-67
2021/05/05 03:56:26;;;;;;;12.40;3.23;;;7.50;1.00;;;;;;5093814;28;20163;-67
2021/05/05 03:58:52;;;;;;;5.73;3.00;;;7.70;1.00;;;;;;5093785;28;20510;-67
2021/05/05 04:01:17;;;;;;;9.97;4.57;;;7.90;1.00;;;;;;5093978;28;20171;-67
2021/05/05 04:03:43;;;;;;;6.33;3.20;;;7.90;1.00;;;;;;5093600;28;20209;-67
2021/05/05 04:06:08;;;;;;;8.90;3.20;;;7.60;1.00;;;;;;5094270;28;20177;-66
2021/05/05 04:08:34;;;;;;;3.57;2.27;;;7.80;1.00;;;;;;5093662;28;20190;-66
2021/05/05 04:10:59;;;;;;;7.23;3.17;;;7.60;1.00;;;;;;5093786;28;20254;-67
2021/05/05 04:13:25;;;;;;;10.37;3.37;;;7.70;1.00;;;;;;5093315;28;20167;-66
2021/05/05 04:15:51;;;;;;;10.43;3.27;;;7.90;1.00;;;;;;5093198;28;20178;-67
2021/05/05 04:18:16;;;;;;;8.90;2.67;;;7.60;1.00;;;;;;5093457;28;20263;-67
2021/05/05 04:20:42;;;;;;;8.87;3.73;;;7.50;1.00;;;;;;5093524;28;20489;-67
2021/05/05 04:23:08;;;;;;;7.05;2.63;;;7.60;1.00;;;;;;5093423;28;20589;-67
2021/05/05 04:25:34;;;;;;;12.20;3.03;;;7.50;1.00;;;;;;5093339;28;20195;-67
2021/05/05 04:27:59;;;;;;;6.13;3.30;;;7.50;1.00;;;;;;5093225;28;20423;-67
2021/05/05 04:30:25;;;;;;;6.07;2.77;;;7.90;1.00;;;;;;5093723;28;20222;-66
2021/05/05 04:32:51;;;;;;;10.00;3.20;;;7.60;1.00;;;;;;5093197;28;20171;-67
2021/05/05 04:35:18;;;;;;;9.10;3.67;;;7.50;1.00;;;;;;5093103;28;20219;-67
2021/05/05 04:37:44;;;;;;;7.13;3.00;;;7.90;1.00;;;;;;5093046;28;20525;-67
2021/05/05 04:40:10;;;;;;;8.73;2.93;;;7.80;1.00;;;;;;5093448;28;20163;-68
2021/05/05 04:42:36;;;;;;;7.15;2.83;;;7.70;1.00;;;;;;5092938;28;20201;-67
2021/05/05 04:45:04;;;;;;;8.88;3.28;;;7.50;1.00;;;;;;5092938;28;20254;-67
2021/05/05 04:47:37;;;;;;;4.90;2.30;;;7.70;1.00;;;;;;5092820;28;20174;-67
2021/05/05 04:50:05;;;;;;;17.48;3.97;;;7.60;1.00;;;;;;5092047;28;20178;-67
2021/05/05 04:52:30;;;;;;;19.35;3.85;;;7.80;1.00;;;;;;5092923;28;20225;-68
2021/05/05 04:54:56;;;;;;;5.03;2.70;;;7.60;1.00;;;;;;5092823;28;20195;-67
2021/05/05 04:57:22;;;;;;;4.63;2.90;;;7.60;1.00;;;;;;5092797;28;20246;-68
2021/05/05 04:59:47;;;;;;;11.77;3.90;;;7.50;1.00;;;;;;5092766;28;20230;-68
2021/05/05 05:02:13;;;;;;;8.67;3.33;;;7.50;1.00;;;;;;5092651;28;20175;-66
2021/05/05 05:04:39;;;;;;;7.70;2.60;;;7.70;1.00;;;;;;5092753;28;20198;-67
2021/05/05 05:07:06;;;;;;;8.52;3.08;;;7.80;1.00;;;;;;5092724;28;20254;-66
2021/05/05 05:09:32;;;;;;;12.07;4.45;;;7.50;1.00;;;;;;5092850;28;20687;-67
2021/05/05 05:11:58;;;;;;;6.33;2.77;;;7.60;1.00;;;;;;5093109;28;20203;-67
2021/05/05 05:14:23;;;;;;;6.43;3.40;;;7.50;1.00;;;;;;5092611;28;20396;-67
2021/05/05 05:16:49;;;;;;;9.40;3.63;;;7.60;1.00;;;;;;5092783;28;20410;-66
2021/05/05 05:19:14;;;;;;;7.37;3.50;;;7.40;1.00;;;;;;5092646;28;20266;-67
2021/05/05 05:21:40;;;;;;;11.90;3.70;;;7.50;1.00;;;;;;5092646;28;20167;-67
2021/05/05 05:24:06;;;;;;;8.67;3.50;;;7.70;1.00;;;;;;5092041;28;20352;-67
2021/05/05 05:26:32;;;;;;;7.30;3.70;;;7.60;1.00;;;;;;5092179;28;20548;-67
2021/05/05 05:28:58;;;;;;;9.70;3.20;;;7.80;1.00;;;;;;5095891;28;20168;-68
2021/05/05 05:31:24;;;;;;;7.63;3.10;;;8.10;1.00;;;;;;5096548;28;20175;-67
2021/05/05 05:33:50;;;;;;;5.27;3.10;;;8.10;1.00;;;;;;5096167;28;20199;-67
2021/05/05 05:36:16;;;;;;;12.23;3.70;;;8.20;99.90;;;;;;5096764;28;20640;-67
2021/05/05 05:38:41;;;;;;;6.13;3.80;;;8.20;1.00;;;;;;5096252;28;20205;-67
2021/05/05 05:41:07;;;;;;;6.70;3.37;;;8.20;1.00;;;;;;5096256;28;20659;-67
2021/05/05 05:43:32;;;;;;;6.30;3.17;;;8.20;99.90;;;;;;5096049;28;20275;-67
2021/05/05 05:45:58;;;;;;;7.67;3.23;;;8.10;99.90;;;;;;5096260;28;20175;-67
2021/05/05 05:48:23;;;;;;;8.37;3.70;;;8.00;1.00;;;;;;5096416;28;20553;-67
2021/05/05 05:50:49;;;;;;;7.63;3.90;;;8.20;1.00;;;;;;5096132;28;20171;-66
2021/05/05 05:53:14;;;;;;;8.80;3.77;;;8.00;1.00;;;;;;5095758;28;20548;-68
2021/05/05 05:55:43;;;;;;;7.03;3.60;;;8.10;1.00;;;;;;5095814;28;20215;-67
2021/05/05 05:58:09;;;;;;;6.90;3.88;;;7.90;1.00;;;;;;5095611;28;20258;-67
2021/05/05 06:00:34;;;;;;;6.47;3.53;;;7.90;1.00;;;;;;5095692;28;20249;-67
2021/05/05 06:03:00;;;;;;;7.87;3.20;;;7.90;1.00;;;;;;5095734;28;20447;-67
2021/05/05 06:05:25;;;;;;;5.83;3.60;;;7.90;1.00;;;;;;5095777;28;20190;-67
2021/05/05 06:07:51;;;;;;;6.80;3.83;;;7.80;1.00;;;;;;5094221;28;20187;-67
2021/05/05 06:10:16;;;;;;;10.27;4.10;;;8.00;1.00;;;;;;5095843;28;20593;-66
2021/05/05 06:12:42;;;;;;;3.87;3.03;;;7.90;1.00;;;;;;5094468;28;20168;-66
2021/05/05 06:15:10;;;;;;;5.57;3.60;;;8.20;1.00;;;;;;5095572;28;20648;-66
2021/05/05 06:17:35;;;;;;;8.40;3.50;;;8.00;1.00;;;;;;5095459;28;20220;-67
2021/05/05 06:20:01;;;;;;;5.30;3.10;;;7.90;1.00;;;;;;5095442;28;20167;-67
2021/05/05 06:22:27;;;;;;;9.15;4.90;;;8.10;1.00;;;;;;5095310;28;20189;-67
2021/05/05 06:24:52;;;;;;;11.73;3.90;;;8.20;1.00;;;;;;5096103;28;20577;-67
2021/05/05 06:27:18;;;;;;;11.90;4.13;;;8.10;1.00;;;;;;5095353;28;20254;-68
2021/05/05 06:29:44;;;;;;;8.33;4.03;;;8.20;1.00;;;;;;5095424;28;20195;-68
2021/05/05 06:32:09;;;;;;;11.57;6.03;;;8.30;1.00;;;;;;5095210;28;20171;-68
2021/05/05 06:34:35;;;;;;;14.10;6.83;;;8.50;1.00;;;;;;5095377;28;20219;-69
2021/05/05 06:37:03;;;;;;;10.37;4.63;;;8.70;99.90;;;;;;5095102;28;20718;-67
2021/05/05 06:39:29;;;;;;;7.88;5.60;;;8.60;99.90;;;;;;5094890;28;20168;-67
2021/05/05 06:41:54;;;;;;;6.47;4.68;;;8.50;99.90;;;;;;5095109;28;20167;-67
2021/05/05 06:44:20;;;;;;;7.10;4.43;;;8.20;99.90;;;;;;5095069;28;20753;-68
2021/05/05 06:46:48;;;;;;;8.90;4.20;;;8.20;99.90;;;;;;5093635;28;20193;-67
2021/05/05 06:49:14;;;;;;;11.90;4.85;;;8.40;99.90;;;;;;5095028;28;20166;-68
2021/05/05 06:51:40;;;;;;;11.03;4.53;;;8.30;99.90;;;;;;5094761;28;20595;-67
2021/05/05 06:54:07;;;;;;;8.25;4.68;;;8.00;99.90;;;;;;5094770;28;20249;-68
2021/05/05 06:56:32;;;;;;;11.73;5.35;;;8.40;99.90;;;;;;5095413;28;20198;-68
2021/05/05 06:58:58;;;;;;;12.53;6.70;;;8.50;99.90;;;;;;5095004;28;20596;-68
2021/05/05 07:01:24;;;;;;;4.80;4.30;;;8.50;99.90;;;;;;5094734;28;20172;-68
2021/05/05 07:03:49;;;;;;;7.83;5.67;;;8.40;99.90;;;;;;5094496;28;20210;-68
2021/05/05 07:06:15;;;;;;;11.53;4.90;;;8.40;99.90;;;;;;5094783;28;20623;-68
2021/05/05 07:08:40;;;;;;;11.03;4.47;;;8.40;99.90;;;;;;5094500;28;20198;-67
2021/05/05 07:11:06;;;;;;;12.30;4.80;;;8.60;99.90;;;;;;5094901;28;20540;-67
2021/05/05 07:13:32;;;;;;;8.67;3.93;;;8.70;99.90;;;;;;5094467;28;20532;-68
2021/05/05 07:15:57;;;;;;;15.37;6.40;;;8.70;99.90;;;;;;5094744;28;20401;-68
2021/05/05 07:18:23;;;;;;;2.67;2.43;;;8.00;1.00;;;;;;5094272;28;20229;-67
2021/05/05 07:20:48;;;;;;;5.63;3.73;;;7.60;1.00;;;;;;5093029;28;20582;-68
2021/05/05 07:23:14;;;;;;;4.63;3.87;;;7.50;1.00;;;;;;5094031;28;20675;-66
2021/05/05 07:25:39;;;;;;;6.13;3.97;;;7.50;1.00;;;;;;5093196;28;20177;-67
2021/05/05 07:28:05;;;;;;;6.90;3.33;;;7.60;1.00;;;;;;5093894;28;20222;-68
2021/05/05 07:30:31;;;;;;;5.50;3.03;;;7.50;1.00;;;;;;5093741;28;20167;-68
2021/05/05 07:32:56;;;;;;;3.17;2.00;;;7.70;1.00;;;;;;5094637;28;20171;-68
2021/05/05 07:35:23;;;;;;;4.50;2.00;;;7.50;1.00;;;;;;5093960;28;20206;-68
2021/05/05 07:45:57;;;;;;;1.90;1.30;;;7.70;1.00;;;;;;5094050;28;20163;-65
2021/05/05 07:48:50;;;;;;;2.30;1.80;;;7.60;1.00;;;;;;5092539;28;20164;-66
2021/05/05 07:51:16;;;;;;;2.97;2.15;;;7.80;1.00;;;;;;5093257;28;20152;-68
2021/05/05 07:53:42;;;;;;;4.22;2.30;;;8.00;1.00;;;;;;5093710;28;20232;-66
2021/05/05 07:56:08;;;;;;;4.33;2.67;;;7.80;1.00;;;;;;5093686;28;20617;-68
2021/05/05 07:58:34;;;;;;;8.65;2.78;;;8.70;1.00;;;;;;5093445;28;20163;-68
2021/05/05 08:01:00;;;;;;;8.13;2.70;;;8.80;1.00;;;;;;5092265;28;20198;-68
2021/05/05 08:03:25;;;;;;;3.63;2.63;;;8.20;1.00;;;;;;5093626;28;20191;-68
2021/05/05 08:05:51;;;;;;;4.97;2.83;;;8.30;1.00;;;;;;5093584;28;20582;-68
2021/05/05 08:08:16;;;;;;;7.33;4.43;;;8.30;1.00;;;;;;5093372;28;20255;-68
2021/05/05 08:10:42;;;;;;;5.47;3.10;;;8.20;1.00;;;;;;5093524;28;20160;-68
2021/05/05 08:13:08;;;;;;;4.57;3.80;;;8.20;1.00;;;;;;5093364;28;20167;-68
2021/05/05 08:15:34;;;;;;;4.93;3.33;;;8.20;1.00;;;;;;5093101;28;20421;-67
2021/05/05 08:18:02;;;;;;;6.78;3.05;;;8.30;1.00;;;;;;5093533;28;20451;-68
2021/05/05 08:20:28;;;;;;;8.90;3.28;;;8.30;99.90;;;;;;5093518;28;20183;-67
2021/05/05 08:22:54;;;;;;;2.90;2.30;;;8.40;99.90;;;;;;5093248;28;20196;-69
2021/05/05 08:25:20;;;;;;;4.32;3.45;;;8.10;99.90;;;;;;5092852;28;20190;-67
2021/05/05 08:27:46;;;;;;;7.23;3.47;;;8.20;99.90;;;;;;5093478;28;20530;-69
2021/05/05 08:30:12;;;;;;;3.50;1.42;;;8.00;99.90;;;;;;5093477;28;20170;-70
2021/05/05 08:32:38;;;;;;;3.45;2.13;;;7.40;1.00;;;;;;5092852;28;20171;-68
2021/05/05 08:35:05;;;;;;;3.57;2.17;;;6.70;1.00;;;;;;5093144;28;20256;-68
2021/05/05 08:37:30;;;;;;;4.10;2.63;;;6.50;1.00;;;;;;5093557;28;20266;-68
2021/05/05 08:39:56;;;;;;;3.53;2.00;;;6.40;99.80;;;;;;5093362;28;20611;-70
2021/05/05 08:42:21;;;;;;;3.30;2.27;;;6.20;98.70;;;;;;5093394;28;20216;-69
2021/05/05 08:44:49;;;;;;;3.17;1.70;;;6.00;99.90;;;;;;5093397;28;20184;-69
2021/05/05 08:47:17;;;;;;;2.70;1.20;;;6.20;99.90;;;;;;5093455;28;20644;-68
2021/05/05 08:49:43;;;;;;;3.08;1.58;;;6.30;32.30;;;;;;5093842;28;20170;-69
2021/05/05 08:52:09;;;;;;;1.80;1.30;;;6.30;20.20;;;;;;5093076;28;20167;-67
2021/05/05 08:54:35;;;;;;;4.28;2.00;;;6.20;92.20;;;;;;5093241;28;20529;-67
2021/05/05 08:57:00;;;;;;;3.00;1.17;;;6.10;99.90;;;;;;5093067;28;20171;-67
2021/05/05 08:59:28;;;;;;;1.60;1.07;;;6.10;99.90;;;;;;5092932;28;20167;-67
2021/05/05 09:01:53;;;;;;;4.85;2.28;;;6.00;99.90;;;;;;5093028;28;20527;-68
2021/05/05 09:04:19;;;;;;;1.97;1.40;;;6.30;99.90;;;;;;5092724;28;20278;-68
2021/05/05 09:06:49;;;;;;;2.33;1.60;;;6.30;95.10;;;;;;5092701;28;20914;-67
2021/05/05 09:09:35;;;;;;;3.13;2.30;;;6.30;16.40;;;;;;5093031;28;20182;-68
2021/05/05 09:12:24;;;;;;;1.63;1.20;;;6.70;7.70;;;;;;5092722;28;20159;-68
2021/05/05 09:14:50;;;;;;;3.83;1.80;;;7.00;1.00;;;;;;5091841;28;20320;-50
2021/05/05 09:17:18;;;;;;;2.15;1.70;;;7.50;99.90;;;;;;5091214;28;20178;-44
2021/05/05 09:19:43;;;;;;;3.55;1.60;;;7.90;1.00;;;;;;5092868;28;20167;-53
2021/05/05 09:22:09;;;;;;;3.60;2.20;;;8.00;1.00;;;;;;5092782;28;20170;-52
2021/05/05 09:24:38;;;;;;;2.50;1.73;;;8.20;1.00;;;;;;5092612;28;20241;-54
2021/05/05 09:27:09;;;;;;;2.17;1.92;;;8.20;1.00;;;;;;5092970;28;20167;-48
2021/05/05 09:29:49;;;;;;;9.07;2.72;;;8.60;1.00;;;;;;5092868;28;20151;-50
2021/05/05 09:32:18;;;;;;;3.65;2.60;;;8.80;1.00;;;;;;5092360;28;20209;-57
2021/05/05 09:34:57;;;;;;;4.68;3.28;;;8.80;1.00;;;;;;5092129;28;20263;-49
2021/05/05 09:37:25;;;;;;;3.25;2.75;;;9.40;99.90;;;;;;5092285;28;20509;-52
2021/05/05 09:40:06;;;;;;;10.60;2.75;;;9.30;1.00;;;;;;5092263;28;20224;-56
2021/05/05 09:42:34;;;;;;;3.90;2.95;;;9.20;1.00;;;;;;5092272;28;20693;-52
2021/05/05 09:45:07;;;;;;;4.53;3.47;;;9.10;1.00;;;;;;5092295;28;20218;-51
2021/05/05 09:47:57;;;;;;;4.85;2.88;;;8.40;1.00;;;;;;5090582;28;20259;-48
2021/05/05 09:50:27;;;;;;;3.47;2.92;;;9.00;1.00;;;;;;5092258;28;20155;-54
2021/05/05 09:53:18;;;;;;;5.93;2.53;;;9.30;1.00;;;;;;5092153;28;20199;-63
2021/05/05 09:55:54;;;;;;;4.10;2.30;;;9.60;1.00;;;;;;5091554;28;20682;-56
2021/05/05 09:58:32;;;;;;;2.70;2.30;;;9.30;1.00;;;;;;5091257;28;20171;-61
2021/05/05 10:01:03;;;;;;;6.13;2.55;;;9.60;1.00;;;;;;5092308;28;20636;-60
2021/05/05 10:03:52;;;;;;;6.30;2.40;;;9.80;1.00;;;;;;5092177;28;20236;-56
2021/05/05 10:06:23;;;;;;;5.45;2.47;;;10.20;1.00;;;;;;5091829;28;20166;-55
2021/05/05 10:08:51;;;;;;;6.22;2.10;;;10.10;1.00;;;;;;5091408;28;20690;-48
2021/05/05 10:11:29;;;;;;;8.52;2.85;;;10.10;1.00;;;;;;5092632;28;20188;-58
2021/05/05 10:14:00;;;;;;;4.05;2.45;;;10.20;1.00;;;;;;5093291;28;20178;-59
2021/05/05 10:16:28;;;;;;;3.80;1.80;;;10.30;1.00;;;;;;5096323;28;20542;-63
2021/05/05 10:18:54;;;;;;;3.67;1.60;;;10.10;99.90;;;;;;5093755;28;20190;-64
2021/05/05 10:21:22;;;;;;;5.20;2.23;;;10.20;99.90;;;;;;5095645;28;20907;-65
2021/05/05 10:23:49;;;;;;;4.68;2.30;;;10.70;99.90;;;;;;5095680;28;20499;-62
2021/05/05 10:26:18;;;;;;;3.88;2.22;;;11.20;99.90;;;;;;5096022;28;20164;-65
2021/05/05 10:28:43;;;;;;;3.30;1.50;;;11.70;99.90;;;;;;5095872;28;20705;-64
2021/05/05 10:31:20;;;;;;;8.00;2.67;;;11.60;99.90;;;;;;5095362;28;20401;-66
2021/05/05 10:33:47;;;;;;;6.47;2.47;;;11.50;99.90;;;;;;5095720;28;20681;-65
2021/05/05 10:36:40;;;;;;;17.00;3.37;;;11.70;99.90;;;;;;5094764;28;20401;-64
2021/05/05 10:39:33;;;;;;;7.33;3.13;;;11.40;99.90;;;;;;5086309;28;20425;-64
2021/05/05 10:42:02;;;;;;;5.43;2.60;;;11.20;99.90;;;;;;5094792;28;20497;-63
2021/05/05 10:44:50;;;;;;;8.30;2.53;;;11.70;99.90;;;;;;5094539;28;20464;-64
2021/05/05 10:47:35;;;;;;;5.07;3.23;;;11.90;99.90;;;;;;5081943;28;20396;-62
2021/05/05 10:50:07;;;;;;;2.37;1.90;;;11.60;99.90;;;;;;5095267;28;20435;-63
2021/05/05 10:52:42;;;;;;;9.37;3.03;;;11.50;99.90;;;;;;5094820;28;20385;-64
2021/05/05 10:55:18;;;;;;;2.60;2.10;;;11.50;99.90;;;;;;5094268;28;20486;-65
2021/05/05 10:58:08;;;;;;;2.90;1.90;;;11.90;99.90;;;;;;5094924;28;20442;-64
2021/05/05 11:01:00;;;;;;;6.10;1.90;;;11.70;99.90;;;;;;5092477;28;20451;-68
2021/05/05 11:03:49;;;;;;;7.20;2.43;;;12.00;99.90;;;;;;5094760;28;20545;-64
2021/05/05 11:06:31;;;;;;;8.57;2.03;;;11.60;99.90;;;;;;5084304;28;20409;-65
2021/05/05 11:09:18;;;;;;;8.57;2.70;;;11.60;99.90;;;;;;5094512;28;20422;-64
2021/05/05 11:11:53;;;;;;;3.77;2.00;;;11.80;99.90;;;;;;5080150;28;20470;-64
2021/05/05 11:14:27;;;;;;;4.43;2.43;;;11.80;99.90;;;;;;5095059;28;20831;-64
2021/05/05 11:17:00;;;;;;;5.97;2.70;;;12.00;99.90;;;;;;5094729;28;20406;-65
2021/05/05 11:19:40;;;;;;;5.60;2.27;;;12.10;99.90;;;;;;5094542;28;20366;-65
2021/05/05 11:22:06;;;;;;;4.10;1.90;;;12.20;99.90;;;;;;5092561;28;20792;-65
2021/05/05 11:24:39;;;;;;;4.23;2.07;;;12.20;99.90;;;;;;5093516;28;20453;-66
2021/05/05 11:27:08;;;;;;;4.57;2.17;;;12.20;99.90;;;;;;5093903;28;20516;-65
2021/05/05 11:29:54;;;;;;;4.50;1.73;;;12.10;99.90;;;;;;5093638;28;20409;-66
2021/05/05 11:32:23;;;;;;;3.70;1.97;;;12.50;99.90;;;;;;5094430;28;20464;-66
2021/05/05 11:34:49;;;;;;;6.00;1.90;;;12.30;99.90;;;;;;5094082;28;20458;-67
2021/05/05 11:37:17;;;;;;;3.87;2.13;;;12.20;99.90;;;;;;5093873;28;20406;-67
2021/05/05 11:39:43;;;;;;;3.20;1.40;;;12.50;99.90;;;;;;5093439;28;20532;-67
2021/05/05 11:42:23;;;;;;;8.07;1.50;;;12.00;99.90;;;;;;5094543;28;20500;-65
2021/05/05 11:45:03;;;;;;;5.40;1.70;;;11.90;99.90;;;;;;5093389;28;20418;-66
2021/05/05 11:47:34;;;;;;;5.30;1.50;;;12.30;99.90;;;;;;5094187;28;20443;-64
2021/05/05 11:50:03;;;;;;;5.10;2.10;;;12.00;99.90;;;;;;5093831;28;20374;-67
2021/05/05 11:52:28;;;;;;;4.77;2.10;;;11.80;99.90;;;;;;5095235;28;20383;-65
2021/05/05 11:55:00;;;;;;;3.87;1.80;;;12.30;99.90;;;;;;5093652;28;20817;-66
2021/05/05 11:57:29;;;;;;;7.87;2.73;;;12.20;99.90;;;;;;5094116;28;20148;-65
2021/05/05 11:59:55;;;;;;;9.23;1.30;;;12.40;99.90;;;;;;5093876;28;20429;-67
2021/05/05 12:02:22;;;;;;;4.63;2.37;;;12.20;99.90;;;;;;5093498;28;20886;-68
2021/05/05 12:04:50;;;;;;;2.47;1.37;;;12.50;99.90;;;;;;5092102;28;20425;-64
2021/05/05 12:07:18;;;;;;;8.30;2.00;;;11.70;99.90;;;;;;5093115;28;20416;-65
2021/05/05 12:09:44;;;;;;;9.60;2.87;;;12.30;99.90;;;;;;5093606;28;20401;-65
2021/05/05 12:12:26;;;;;;;4.50;1.73;;;12.50;99.90;;;;;;5093581;28;20441;-66
2021/05/05 12:15:10;;;;;;;10.13;2.47;;;12.10;99.90;;;;;;5091259;28;20440;-66
2021/05/05 12:17:43;;;;;;;5.00;1.80;;;12.70;99.90;;;;;;5093403;28;20425;-69
2021/05/05 12:20:10;;;;;;;3.87;1.20;;;12.00;99.90;;;;;;5093849;28;20458;-70
2021/05/05 12:22:49;;;;;;;4.07;1.37;;;12.20;99.90;;;;;;5093601;28;20918;-69
2021/05/05 12:25:21;;;;;;;5.47;1.70;;;11.90;99.90;;;;;;5092843;28;20425;-70
2021/05/05 12:27:59;;;;;;;5.93;1.50;;;11.20;99.90;;;;;;5093260;28;20406;-71
2021/05/05 12:30:52;;;;;;;4.20;1.57;;;12.10;99.90;;;;;;5093090;28;20393;-70
2021/05/05 12:33:32;;;;;;;3.60;2.17;;;13.00;99.90;;;;;;5093360;28;20409;-71
2021/05/05 12:36:00;;;;;;;3.83;1.67;;;12.90;99.90;;;;;;5092493;28;20732;-71
2021/05/05 12:38:25;;;;;;;3.63;2.10;;;13.50;99.90;;;;;;5093039;28;20405;-70
2021/05/05 12:41:00;;;;;;;5.23;2.00;;;12.40;99.90;;;;;;5092819;28;20501;-70
2021/05/05 12:43:27;;;;;;;7.40;2.10;;;12.20;99.90;;;;;;5092888;28;20186;-71
2021/05/05 12:45:55;;;;;;;9.50;2.07;;;12.50;99.90;;;;;;5092762;28;20417;-71
2021/05/05 12:48:30;;;;;;;5.93;2.30;;;12.00;99.90;;;;;;5092203;28;20398;-70
2021/05/05 12:51:09;;;;;;;3.20;1.70;;;12.40;99.90;;;;;;5092774;28;20389;-70
2021/05/05 12:53:58;;;;;;;8.70;1.97;;;12.30;99.90;;;;;;5092544;28;20393;-69
2021/05/05 12:56:43;;;;;;;5.70;1.90;;;12.90;99.90;;;;;;5091060;28;20424;-70
2021/05/05 12:59:11;;;;;;;10.70;1.80;;;12.50;99.90;;;;;;5092453;28;20409;-69
2021/05/05 13:01:37;;;;;;;4.63;1.93;;;11.80;99.90;;;;;;5092878;28;20439;-70
2021/05/05 13:04:02;;;;;;;14.70;2.47;;;12.20;99.90;;;;;;5092549;28;20480;-70
2021/05/05 13:06:41;;;;;;;6.70;1.00;;;11.30;99.90;;;;;;5092338;28;20246;-69
2021/05/05 13:09:25;;;;;;;5.27;1.40;;;11.00;99.90;;;;;;5092259;28;20929;-69
2021/05/05 13:12:07;;;;;;;3.20;1.30;;;11.00;99.90;;;;;;5092237;28;20431;-69
2021/05/05 13:15:06;;;;;;;2.17;1.00;;;10.80;99.90;;;;;;5092662;28;20512;-69